El Cajon (6925) Station Data

Red Flag Warning: No
Fire Weather Zone: 250
SDGE Region: Eastern
Lat/Lon: 32.795/-116.973

Observations

Time Wind Speed/Gust Temp(F) RH Fuel Moist Fuel Temp(F) Dewpt(F) Tmax(F) Tmin(F) Accum Precip 10-min Precip SL Press(mb)
5/24 8:20am 276 1 G 4 64° 78% - - 57° 64.6° 59.4° - - -
5/24 8:10am 68 1 G 2 62° 82% - - 57° 62.9° 59.4° - - -
5/24 8:00am 47 2 G 4 62° 83% - - 56° 62.7° 59.4° - - -
5/24 7:50am 69 3 G 6 61° 84% - - 57° 62.6° 59.4° - - -
5/24 7:40am 119 2 G 5 62° 83% - - 57° 62.6° 59.4° - - -
5/24 7:30am 79 3 G 5 62° 84% - - 57° 62.5° 59.4° - - -
5/24 7:20am 61 1 G 3 61° 85% - - 57° 62.5° 59.4° - - -
5/24 7:10am 340 2 G 3 61° 86% - - 57° 62.5° 59.4° - - -
5/24 7:00am 290 1 G 3 61° 86% - - 57° 62.5° 59.4° - - -
5/24 6:50am 335 1 G 2 61° 87% - - 57° 62.5° 59.4° - - -
5/24 6:40am 172 2 G 4 61° 87% - - 57° 62.5° 59.4° - - -
5/24 6:30am 187 2 G 6 61° 88% - - 57° 62.5° 59.4° - - -
5/24 6:20am 200 5 G 9 61° 88% - - 57° 62.5° 59.4° - - -
5/24 6:10am 225 2 G 8 60° 90% - - 57° 62.5° 59.4° - - -
5/24 6:00am 213 2 G 4 60° 90% - - 57° 62.5° 59.4° - - -
5/24 5:50am 225 3 G 6 60° 90% - - 57° 62.5° 59.4° - - -
5/24 5:40am 251 3 G 5 60° 89% - - 57° 62.5° 59.4° - - -
5/24 5:30am 8 2 G 3 60° 90% - - 57° 62.5° 59.4° - - -
5/24 5:20am 9 2 G 4 60° 90% - - 57° 62.5° 59.4° - - -
5/24 5:10am 49 2 G 4 60° 91% - - 57° 62.5° 59.4° - - -
5/24 5:00am 34 3 G 5 60° 91% - - 57° 62.5° 59.4° - - -
5/24 4:50am 56 4 G 8 60° 90% - - 58° 62.5° 59.4° - - -
5/24 4:40am 68 3 G 7 60° 91% - - 58° 62.5° 59.4° - - -
5/24 4:30am 18 3 G 7 60° 91% - - 58° 62.5° 59.4° - - -
5/24 4:20am 25 3 G 5 60° 92% - - 58° 62.5° 59.4° - - -
5/24 4:10am 96 2 G 5 60° 92% - - 58° 62.5° 59.4° - - -
5/24 4:00am 138 3 G 5 60° 91% - - 57° 62.5° 59.6° - - -
5/24 3:50am 169 2 G 3 60° 91% - - 57° 62.5° 59.7° - - -
5/24 3:40am 242 2 G 5 60° 90% - - 57° 62.5° 59.8° - - -
5/24 3:30am 159 2 G 3 60° 90% - - 57° 62.5° 59.8° - - -
5/24 3:20am 169 3 G 5 61° 89% - - 57° 62.5° 59.8° - - -
5/24 3:10am 171 2 G 4 61° 90% - - 58° 62.5° 59.8° - - -
5/24 3:00am 168 2 G 5 60° 90% - - 58° 62.5° 59.8° - - -
5/24 2:50am 191 3 G 5 60° 90% - - 58° 62.5° 59.8° - - -
5/24 2:40am 153 1 G 4 60° 90% - - 57° 62.5° 59.8° - - -
5/24 2:30am 341 1 G 4 60° 90% - - 57° 62.5° 59.9° - - -
5/24 2:20am 247 1 G 3 60° 90% - - 57° 62.5° 59.9° - - -
5/24 2:10am 168 2 G 4 60° 90% - - 57° 62.5° 59.9° - - -
5/24 2:00am 201 3 G 5 60° 90% - - 57° 62.5° 60° - - -
5/24 1:50am 180 1 G 3 60° 89% - - 57° 62.5° 60° - - -
5/24 1:40am 180 1 G 2 61° 88% - - 57° 62.5° 60.2° - - -
5/24 1:30am 218 1 G 4 61° 88% - - 57° 62.5° 60.4° - - -
5/24 1:20am 227 1 G 2 61° 87% - - 57° 62.5° 60.5° - - -
5/24 1:10am 243 3 G 5 61° 87% - - 57° 62.5° 60.6° - - -
5/24 1:00am 257 2 G 5 61° 86% - - 57° 62.5° 60.7° - - -
5/24 12:50am 258 2 G 4 61° 86% - - 57° 62.5° 60.8° - - -
5/24 12:40am 276 2 G 4 61° 86% - - 57° 62.5° 61.1° - - -
5/24 12:30am 255 1 G 2 62° 86% - - 57° 62.5° 61.2° - - -
5/24 12:20am 256 1 G 4 62° 86% - - 57° 62.5° 61.2° - - -
5/24 12:10am 224 3 G 5 62° 85% - - 58° 62.5° 61.6° - - -
5/24 12:00am 230 3 G 5 62° 85% - - 58° 85.9° 57.7° - - -
5/23 11:50pm 211 2 G 5 62° 84% - - 58° 85.9° 57.7° - - -
5/23 11:40pm 206 2 G 5 63° 83% - - 58° 85.9° 57.7° - - -
5/23 11:30pm 195 3 G 8 63° 82% - - 58° 85.9° 57.7° - - -
5/23 11:20pm 204 2 G 7 64° 80% - - 58° 85.9° 57.7° - - -
5/23 11:10pm 217 3 G 7 64° 79% - - 58° 85.9° 57.7° - - -
5/23 11:00pm 224 3 G 10 65° 77% - - 58° 85.9° 57.7° - - -
5/23 10:50pm 226 3 G 5 65° 76% - - 58° 85.9° 57.7° - - -
5/23 10:40pm 235 4 G 7 66° 75% - - 58° 85.9° 57.7° - - -
5/23 10:30pm 200 2 G 3 66° 74% - - 58° 85.9° 57.7° - - -
5/23 10:20pm 197 3 G 4 66° 74% - - 58° 85.9° 57.7° - - -
5/23 10:10pm 196 2 G 4 67° 73% - - 58° 85.9° 57.7° - - -
5/23 10:00pm 197 2 G 3 67° 72% - - 58° 85.9° 57.7° - - -
5/23 9:50pm 231 3 G 7 68° 71% - - 58° 85.9° 57.7° - - -
5/23 9:40pm 168 2 G 4 68° 70% - - 58° 85.9° 57.7° - - -
5/23 9:30pm 181 2 G 3 68° 69% - - 58° 85.9° 57.7° - - -
5/23 9:20pm 179 2 G 4 68° 68% - - 58° 85.9° 57.7° - - -
5/23 9:10pm 216 2 G 5 69° 68% - - 58° 85.9° 57.7° - - -
5/23 9:00pm 225 4 G 7 69° 67% - - 58° 85.9° 57.7° - - -
5/23 8:50pm 191 3 G 6 70° 65% - - 58° 85.9° 57.7° - - -
5/23 8:40pm 198 3 G 6 70° 64% - - 58° 85.9° 57.7° - - -
5/23 8:30pm 184 3 G 6 72° 62% - - 58° 85.9° 57.7° - - -
5/23 8:20pm 216 3 G 7 73° 60% - - 58° 85.9° 57.7° - - -
5/23 8:10pm 255 4 G 9 74° 58% - - 58° 85.9° 57.7° - - -
5/23 8:00pm 264 4 G 7 74° 56% - - 58° 85.9° 57.7° - - -
5/23 7:50pm 263 5 G 8 75° 55% - - 58° 85.9° 57.7° - - -
5/23 7:40pm 257 5 G 7 75° 54% - - 57° 85.9° 57.7° - - -
5/23 7:30pm 253 4 G 7 76° 53% - - 57° 85.9° 57.7° - - -
5/23 7:20pm 260 4 G 7 76° 52% - - 57° 85.9° 57.7° - - -
5/23 7:10pm 262 6 G 11 76° 52% - - 57° 85.9° 57.7° - - -
5/23 7:00pm 249 6 G 9 76° 51% - - 57° 85.9° 57.7° - - -
5/23 6:50pm 256 6 G 12 77° 51% - - 57° 85.9° 57.7° - - -
5/23 6:40pm 264 6 G 12 77° 50% - - 57° 85.9° 57.7° - - -
5/23 6:30pm 247 7 G 12 77° 50% - - 57° 85.9° 57.7° - - -
5/23 6:20pm 244 7 G 12 78° 48% - - 57° 85.9° 57.7° - - -
5/23 6:10pm 238 8 G 14 79° 48% - - 57° 85.9° 57.7° - - -
5/23 6:00pm 233 8 G 13 79° 46% - - 57° 85.9° 57.7° - - -
5/23 5:50pm 234 7 G 13 80° 45% - - 57° 85.9° 57.7° - - -
5/23 5:40pm 246 8 G 14 81° 44% - - 57° 85.9° 57.7° - - -
5/23 5:30pm 248 8 G 12 82° 42% - - 57° 85.9° 57.7° - - -
5/23 5:20pm 248 8 G 13 83° 40% - - 57° 85.9° 57.7° - - -
5/23 5:10pm 251 6 G 10 84° 38% - - 56° 85.9° 57.7° - - -
5/23 5:00pm 252 6 G 12 84° 37% - - 55° 85.9° 57.7° - - -
5/23 4:50pm 279 4 G 9 85° 36% - - 55° 85.9° 57.7° - - -
5/23 4:40pm 273 4 G 8 85° 35% - - 54° 85.7° 57.7° - - -
5/23 4:30pm 258 4 G 9 84° 37% - - 55° 85.7° 57.7° - - -
5/23 4:20pm 254 5 G 9 84° 39% - - 56° 85.7° 57.7° - - -
5/23 4:10pm 282 4 G 7 84° 37% - - 55° 85.7° 57.7° - - -
5/23 4:00pm 344 4 G 12 85° 36% - - 55° 85.7° 57.7° - - -
5/23 3:50pm 248 2 G 6 83° 40% - - 57° 85.4° 57.7° - - -
5/23 3:40pm 275 4 G 14 83° 42% - - 57° 85.4° 57.7° - - -
5/23 3:30pm 278 3 G 7 83° 43% - - 58° 85.4° 57.7° - - -
5/23 3:20pm 249 2 G 5 83° 44% - - 58° 85.4° 57.7° - - -
5/23 3:10pm 123 2 G 4 80° 46% - - 58° 85.4° 57.7° - - -
5/23 3:00pm 302 3 G 6 80° 48% - - 58° 85.4° 57.7° - - -
5/23 2:50pm 251 3 G 7 79° 50% - - 58° 85.4° 57.7° - - -
5/23 2:40pm 210 3 G 6 78° 51% - - 59° 85.4° 57.7° - - -
5/23 2:30pm 235 4 G 8 77° 53% - - 59° 85.4° 57.7° - - -
5/23 2:20pm 242 6 G 12 76° 55% - - 59° 85.4° 57.7° - - -
5/23 2:10pm 240 8 G 14 76° 54% - - 59° 85.4° 57.7° - - -
5/23 2:00pm 258 6 G 12 76° 55% - - 59° 85.4° 57.7° - - -
5/23 1:50pm 253 6 G 10 76° 56% - - 59° 85.4° 57.7° - - -
5/23 1:40pm 266 6 G 11 76° 55% - - 59° 85.4° 57.7° - - -
5/23 1:30pm 248 6 G 11 76° 56% - - 59° 85.4° 57.7° - - -
5/23 1:20pm 252 8 G 12 75° 56% - - 59° 85.4° 57.7° - - -
5/23 1:10pm 263 7 G 13 76° 56% - - 59° 85.4° 57.7° - - -
5/23 1:00pm 254 7 G 12 77° 55% - - 59° 85.4° 57.7° - - -
5/23 12:50pm 250 6 G 12 76° 57% - - 59° 85.4° 57.7° - - -
5/23 12:40pm 244 8 G 13 75° 58% - - 60° 85.4° 57.7° - - -
5/23 12:30pm 245 8 G 16 76° 57% - - 60° 85.4° 57.7° - - -
5/23 12:20pm 249 10 G 16 76° 57% - - 60° 85.4° 57.7° - - -
5/23 12:10pm 255 9 G 17 76° 57% - - 59° 85.4° 57.7° - - -
5/23 12:00pm 255 10 G 17 76° 56% - - 59° 85.4° 57.7° - - -
5/23 11:50am 253 11 G 19 77° 55% - - 59° 85.4° 57.7° - - -
5/23 11:40am 247 11 G 18 78° 53% - - 60° 85.4° 57.7° - - -
5/23 11:30am 249 12 G 18 78° 52% - - 59° 85.4° 57.7° - - -
5/23 11:20am 248 11 G 18 80° 50% - - 60° 85.4° 57.7° - - -
5/23 11:10am 244 9 G 13 83° 41% - - 57° 85.4° 57.7° - - -
5/23 11:00am 243 6 G 13 84° 35% - - 54° 85.4° 57.7° - - -
5/23 10:50am 253 4 G 8 85° 32% - - 52° 85.4° 57.7° - - -
5/23 10:40am 252 4 G 9 84° 33% - - 52° 84.9° 57.7° - - -
5/23 10:30am 113 1 G 5 83° 34% - - 52° 84.9° 57.7° - - -
5/23 10:20am 200 1 G 4 81° 35% - - 51° 82.4° 57.7° - - -
5/23 10:10am 202 1 G 2 80° 38% - - 51° 81° 57.7° - - -
5/23 10:00am 259 1 G 2 77° 44% - - 54° 78.7° 57.7° - - -
5/23 9:50am 331 1 G 3 75° 50% - - 55° 76.1° 57.7° - - -
5/23 9:40am 153 1 G 2 74° 52% - - 56° 75.3° 57.7° - - -
5/23 9:30am 17 1 G 4 71° 58% - - 56° 73.8° 57.7° - - -
5/23 9:20am 4 2 G 5 70° 60% - - 56° 70.9° 57.7° - - -
5/23 9:10am 23 1 G 4 69° 63% - - 56° 70.4° 57.7° - - -
5/23 9:00am 26 2 G 4 67° 66% - - 56° 68.5° 57.7° - - -
5/23 8:50am 349 1 G 4 66° 69% - - 56° 67.2° 57.7° - - -
5/23 8:40am 338 2 G 4 65° 72% - - 56° 66.3° 57.7° - - -
5/23 8:30am 293 1 G 3 64° 76% - - 57° 65.7° 57.7° - - -
5/23 8:20am 356 2 G 4 62° 80% - - 56° 63.3° 57.7° - - -
5/23 8:10am 26 2 G 4 63° 80% - - 56° 63.3° 57.7° - - -
5/23 8:00am 57 2 G 4 62° 82% - - 56° 63.3° 57.7° - - -
5/23 7:50am 26 2 G 5 61° 84% - - 56° 62.8° 57.7° - - -
5/23 7:40am 39 2 G 3 60° 86% - - 56° 62.8° 57.7° - - -
5/23 7:30am 69 1 G 3 60° 87% - - 56° 62.8° 57.7° - - -
5/23 7:20am 68 2 G 3 59° 89% - - 56° 62.8° 57.7° - - -
5/23 7:10am 42 1 G 3 59° 90% - - 56° 62.8° 57.7° - - -
5/23 7:00am 14 2 G 3 58° 90% - - 56° 62.8° 57.7° - - -
5/23 6:50am 360 2 G 3 58° 91% - - 56° 62.8° 57.7° - - -
5/23 6:40am 331 2 G 2 58° 90% - - 56° 62.8° 57.7° - - -
5/23 6:30am 322 1 G 3 58° 90% - - 55° 62.8° 57.7° - - -
5/23 6:20am 337 2 G 4 58° 89% - - 55° 62.8° 57.7° - - -
5/23 6:10am 346 1 G 3 59° 88% - - 55° 62.8° 57.7° - - -
5/23 6:00am 314 1 G 2 59° 88% - - 55° 62.8° 57.7° - - -